sensor_id;sensor_type;location;lat;lon;timestamp;P1;durP1;ratioP1;P2;durP2;ratioP2
68507;SDS011;55510;49.560;19.090;2023-11-22T00:00:41;5.87;;;2.00;;
68507;SDS011;55510;49.560;19.090;2023-11-22T00:04:01;5.95;;;1.85;;
68507;SDS011;55510;49.560;19.090;2023-11-22T00:07:02;5.82;;;2.75;;
68507;SDS011;55510;49.560;19.090;2023-11-22T00:10:03;6.73;;;2.20;;
68507;SDS011;55510;49.560;19.090;2023-11-22T00:13:05;6.30;;;2.28;;
68507;SDS011;55510;49.560;19.090;2023-11-22T00:16:06;8.00;;;1.98;;
68507;SDS011;55510;49.560;19.090;2023-11-22T00:19:09;6.13;;;2.30;;
68507;SDS011;55510;49.560;19.090;2023-11-22T00:22:10;9.32;;;4.10;;
68507;SDS011;55510;49.560;19.090;2023-11-22T00:25:15;9.00;;;3.17;;
68507;SDS011;55510;49.560;19.090;2023-11-22T00:28:16;9.97;;;4.60;;
68507;SDS011;55510;49.560;19.090;2023-11-22T00:31:18;9.20;;;3.58;;
68507;SDS011;55510;49.560;19.090;2023-11-22T00:34:18;8.77;;;3.70;;
68507;SDS011;55510;49.560;19.090;2023-11-22T00:37:19;9.48;;;3.50;;
68507;SDS011;55510;49.560;19.090;2023-11-22T00:40:20;13.37;;;4.80;;
68507;SDS011;55510;49.560;19.090;2023-11-22T00:43:21;9.10;;;3.75;;
68507;SDS011;55510;49.560;19.090;2023-11-22T00:46:21;10.53;;;3.80;;
68507;SDS011;55510;49.560;19.090;2023-11-22T00:49:22;10.23;;;4.68;;
68507;SDS011;55510;49.560;19.090;2023-11-22T00:52:23;8.85;;;3.85;;
68507;SDS011;55510;49.560;19.090;2023-11-22T00:55:24;10.50;;;3.60;;
68507;SDS011;55510;49.560;19.090;2023-11-22T00:58:25;8.87;;;4.10;;
68507;SDS011;55510;49.560;19.090;2023-11-22T01:01:26;8.75;;;3.85;;
68507;SDS011;55510;49.560;19.090;2023-11-22T01:04:27;10.97;;;4.13;;
68507;SDS011;55510;49.560;19.090;2023-11-22T01:07:28;10.90;;;4.25;;
68507;SDS011;55510;49.560;19.090;2023-11-22T01:10:29;10.77;;;4.10;;
68507;SDS011;55510;49.560;19.090;2023-11-22T01:13:30;9.13;;;3.60;;
68507;SDS011;55510;49.560;19.090;2023-11-22T01:16:31;9.18;;;3.30;;
68507;SDS011;55510;49.560;19.090;2023-11-22T01:19:32;8.87;;;3.50;;
68507;SDS011;55510;49.560;19.090;2023-11-22T01:22:33;9.85;;;4.05;;
68507;SDS011;55510;49.560;19.090;2023-11-22T01:25:34;7.87;;;3.70;;
68507;SDS011;55510;49.560;19.090;2023-11-22T01:28:35;8.07;;;3.70;;
68507;SDS011;55510;49.560;19.090;2023-11-22T01:31:36;8.30;;;3.88;;
68507;SDS011;55510;49.560;19.090;2023-11-22T01:34:36;10.20;;;3.87;;
68507;SDS011;55510;49.560;19.090;2023-11-22T01:37:37;13.32;;;4.95;;
68507;SDS011;55510;49.560;19.090;2023-11-22T01:40:44;12.33;;;4.87;;
68507;SDS011;55510;49.560;19.090;2023-11-22T01:43:46;15.15;;;5.75;;
68507;SDS011;55510;49.560;19.090;2023-11-22T01:46:47;14.47;;;5.53;;
68507;SDS011;55510;49.560;19.090;2023-11-22T01:49:48;13.10;;;5.78;;
68507;SDS011;55510;49.560;19.090;2023-11-22T01:52:49;10.57;;;4.30;;
68507;SDS011;55510;49.560;19.090;2023-11-22T01:55:50;11.40;;;5.40;;
68507;SDS011;55510;49.560;19.090;2023-11-22T01:58:51;9.98;;;4.85;;
68507;SDS011;55510;49.560;19.090;2023-11-22T02:01:55;10.48;;;5.10;;
68507;SDS011;55510;49.560;19.090;2023-11-22T02:04:55;13.13;;;5.23;;
68507;SDS011;55510;49.560;19.090;2023-11-22T02:07:56;9.40;;;4.45;;
68507;SDS011;55510;49.560;19.090;2023-11-22T02:11:01;10.18;;;4.57;;
68507;SDS011;55510;49.560;19.090;2023-11-22T02:14:05;10.07;;;5.37;;
68507;SDS011;55510;49.560;19.090;2023-11-22T02:17:07;11.13;;;4.82;;
68507;SDS011;55510;49.560;19.090;2023-11-22T02:20:10;8.45;;;3.75;;
68507;SDS011;55510;49.560;19.090;2023-11-22T02:23:11;12.60;;;5.87;;
68507;SDS011;55510;49.560;19.090;2023-11-22T02:26:12;14.10;;;5.50;;
68507;SDS011;55510;49.560;19.090;2023-11-22T02:29:12;12.52;;;5.82;;
68507;SDS011;55510;49.560;19.090;2023-11-22T02:32:13;12.57;;;5.20;;
68507;SDS011;55510;49.560;19.090;2023-11-22T02:35:14;13.43;;;5.10;;
68507;SDS011;55510;49.560;19.090;2023-11-22T02:38:16;13.47;;;6.20;;
68507;SDS011;55510;49.560;19.090;2023-11-22T02:41:18;10.70;;;4.03;;
68507;SDS011;55510;49.560;19.090;2023-11-22T02:44:19;11.63;;;5.25;;
68507;SDS011;55510;49.560;19.090;2023-11-22T02:47:20;11.70;;;5.10;;
68507;SDS011;55510;49.560;19.090;2023-11-22T02:50:20;11.98;;;6.55;;
68507;SDS011;55510;49.560;19.090;2023-11-22T02:53:22;12.05;;;5.22;;
68507;SDS011;55510;49.560;19.090;2023-11-22T02:56:22;12.77;;;5.53;;
68507;SDS011;55510;49.560;19.090;2023-11-22T02:59:23;14.43;;;7.05;;
68507;SDS011;55510;49.560;19.090;2023-11-22T03:02:24;11.67;;;4.57;;
68507;SDS011;55510;49.560;19.090;2023-11-22T03:05:26;15.02;;;6.07;;
68507;SDS011;55510;49.560;19.090;2023-11-22T03:08:27;11.10;;;4.70;;
68507;SDS011;55510;49.560;19.090;2023-11-22T03:11:27;11.37;;;4.97;;
68507;SDS011;55510;49.560;19.090;2023-11-22T03:14:28;9.77;;;4.03;;
68507;SDS011;55510;49.560;19.090;2023-11-22T03:17:29;11.73;;;4.97;;
68507;SDS011;55510;49.560;19.090;2023-11-22T03:20:30;11.47;;;4.47;;
68507;SDS011;55510;49.560;19.090;2023-11-22T03:23:33;10.23;;;3.93;;
68507;SDS011;55510;49.560;19.090;2023-11-22T03:26:34;14.40;;;5.75;;
68507;SDS011;55510;49.560;19.090;2023-11-22T03:29:34;18.33;;;6.47;;
68507;SDS011;55510;49.560;19.090;2023-11-22T03:32:35;10.07;;;4.37;;
68507;SDS011;55510;49.560;19.090;2023-11-22T03:35:38;9.15;;;4.13;;
68507;SDS011;55510;49.560;19.090;2023-11-22T03:38:39;11.98;;;5.07;;
68507;SDS011;55510;49.560;19.090;2023-11-22T03:41:40;10.68;;;4.97;;
68507;SDS011;55510;49.560;19.090;2023-11-22T03:44:42;12.07;;;5.13;;
68507;SDS011;55510;49.560;19.090;2023-11-22T03:47:43;10.40;;;5.30;;
68507;SDS011;55510;49.560;19.090;2023-11-22T03:50:44;11.45;;;5.03;;
68507;SDS011;55510;49.560;19.090;2023-11-22T03:53:44;11.57;;;4.97;;
68507;SDS011;55510;49.560;19.090;2023-11-22T03:56:45;16.80;;;5.28;;
68507;SDS011;55510;49.560;19.090;2023-11-22T03:59:47;11.50;;;6.13;;
68507;SDS011;55510;49.560;19.090;2023-11-22T04:02:48;12.52;;;6.05;;
68507;SDS011;55510;49.560;19.090;2023-11-22T04:05:48;9.93;;;5.17;;
68507;SDS011;55510;49.560;19.090;2023-11-22T04:08:49;12.40;;;4.90;;
68507;SDS011;55510;49.560;19.090;2023-11-22T04:11:50;13.47;;;7.43;;
68507;SDS011;55510;49.560;19.090;2023-11-22T04:14:51;14.98;;;7.32;;
68507;SDS011;55510;49.560;19.090;2023-11-22T04:17:52;13.50;;;7.72;;
68507;SDS011;55510;49.560;19.090;2023-11-22T04:20:54;14.40;;;7.03;;
68507;SDS011;55510;49.560;19.090;2023-11-22T04:23:55;19.93;;;8.40;;
68507;SDS011;55510;49.560;19.090;2023-11-22T04:26:56;19.13;;;9.10;;
68507;SDS011;55510;49.560;19.090;2023-11-22T04:29:56;16.30;;;7.77;;
68507;SDS011;55510;49.560;19.090;2023-11-22T04:32:57;19.23;;;8.45;;
68507;SDS011;55510;49.560;19.090;2023-11-22T04:36:00;19.00;;;8.57;;
68507;SDS011;55510;49.560;19.090;2023-11-22T04:39:01;15.18;;;6.78;;
68507;SDS011;55510;49.560;19.090;2023-11-22T04:42:02;17.75;;;7.65;;
68507;SDS011;55510;49.560;19.090;2023-11-22T04:45:03;17.23;;;8.10;;
68507;SDS011;55510;49.560;19.090;2023-11-22T04:48:04;15.60;;;7.45;;
68507;SDS011;55510;49.560;19.090;2023-11-22T04:51:07;13.75;;;6.50;;
68507;SDS011;55510;49.560;19.090;2023-11-22T04:54:07;14.93;;;7.40;;
68507;SDS011;55510;49.560;19.090;2023-11-22T04:57:08;16.48;;;7.20;;
68507;SDS011;55510;49.560;19.090;2023-11-22T05:00:09;18.67;;;7.93;;
68507;SDS011;55510;49.560;19.090;2023-11-22T05:03:10;17.45;;;7.47;;
68507;SDS011;55510;49.560;19.090;2023-11-22T05:06:11;14.13;;;5.97;;
68507;SDS011;55510;49.560;19.090;2023-11-22T05:09:12;13.07;;;5.85;;
68507;SDS011;55510;49.560;19.090;2023-11-22T05:12:14;14.03;;;6.03;;
68507;SDS011;55510;49.560;19.090;2023-11-22T05:15:15;17.75;;;7.70;;
68507;SDS011;55510;49.560;19.090;2023-11-22T05:18:15;20.48;;;9.93;;
68507;SDS011;55510;49.560;19.090;2023-11-22T05:21:16;19.77;;;8.07;;
68507;SDS011;55510;49.560;19.090;2023-11-22T05:24:17;17.38;;;6.63;;
68507;SDS011;55510;49.560;19.090;2023-11-22T05:27:18;20.87;;;7.57;;
68507;SDS011;55510;49.560;19.090;2023-11-22T05:30:18;29.30;;;8.57;;
68507;SDS011;55510;49.560;19.090;2023-11-22T05:33:19;20.87;;;7.73;;
68507;SDS011;55510;49.560;19.090;2023-11-22T05:36:20;14.60;;;6.27;;
68507;SDS011;55510;49.560;19.090;2023-11-22T05:39:20;14.80;;;5.55;;
68507;SDS011;55510;49.560;19.090;2023-11-22T05:42:24;14.82;;;6.30;;
68507;SDS011;55510;49.560;19.090;2023-11-22T05:45:25;13.63;;;5.03;;
68507;SDS011;55510;49.560;19.090;2023-11-22T05:48:26;15.40;;;7.45;;
68507;SDS011;55510;49.560;19.090;2023-11-22T05:51:27;17.17;;;7.28;;
68507;SDS011;55510;49.560;19.090;2023-11-22T05:54:27;20.67;;;7.83;;
68507;SDS011;55510;49.560;19.090;2023-11-22T05:57:30;18.00;;;7.43;;
68507;SDS011;55510;49.560;19.090;2023-11-22T06:00:31;17.73;;;6.47;;
68507;SDS011;55510;49.560;19.090;2023-11-22T06:03:32;17.33;;;6.90;;
68507;SDS011;55510;49.560;19.090;2023-11-22T06:06:33;17.92;;;7.82;;
68507;SDS011;55510;49.560;19.090;2023-11-22T06:09:34;19.87;;;9.40;;
68507;SDS011;55510;49.560;19.090;2023-11-22T06:12:36;24.23;;;10.30;;
68507;SDS011;55510;49.560;19.090;2023-11-22T06:15:37;17.88;;;8.45;;
68507;SDS011;55510;49.560;19.090;2023-11-22T06:18:38;18.50;;;7.40;;
68507;SDS011;55510;49.560;19.090;2023-11-22T06:21:40;22.02;;;9.30;;
68507;SDS011;55510;49.560;19.090;2023-11-22T06:24:41;22.87;;;9.97;;
68507;SDS011;55510;49.560;19.090;2023-11-22T06:27:42;19.85;;;9.05;;
68507;SDS011;55510;49.560;19.090;2023-11-22T06:30:42;19.38;;;8.40;;
68507;SDS011;55510;49.560;19.090;2023-11-22T06:33:43;20.13;;;9.13;;
68507;SDS011;55510;49.560;19.090;2023-11-22T06:36:44;22.23;;;9.15;;
68507;SDS011;55510;49.560;19.090;2023-11-22T06:39:45;19.23;;;9.07;;
68507;SDS011;55510;49.560;19.090;2023-11-22T06:42:46;21.08;;;9.38;;
68507;SDS011;55510;49.560;19.090;2023-11-22T06:45:47;26.30;;;11.52;;
68507;SDS011;55510;49.560;19.090;2023-11-22T06:48:48;32.57;;;14.53;;
68507;SDS011;55510;49.560;19.090;2023-11-22T06:51:49;35.78;;;13.90;;
68507;SDS011;55510;49.560;19.090;2023-11-22T06:54:50;31.48;;;13.23;;
68507;SDS011;55510;49.560;19.090;2023-11-22T06:57:51;30.30;;;11.93;;
68507;SDS011;55510;49.560;19.090;2023-11-22T07:00:52;25.95;;;11.60;;
68507;SDS011;55510;49.560;19.090;2023-11-22T07:03:53;28.43;;;11.67;;
68507;SDS011;55510;49.560;19.090;2023-11-22T07:06:53;25.40;;;11.65;;
68507;SDS011;55510;49.560;19.090;2023-11-22T07:09:55;23.63;;;10.48;;
68507;SDS011;55510;49.560;19.090;2023-11-22T07:12:58;23.23;;;10.20;;
68507;SDS011;55510;49.560;19.090;2023-11-22T07:16:01;26.08;;;11.57;;
68507;SDS011;55510;49.560;19.090;2023-11-22T07:19:04;25.45;;;10.38;;
68507;SDS011;55510;49.560;19.090;2023-11-22T07:22:07;24.67;;;10.50;;
68507;SDS011;55510;49.560;19.090;2023-11-22T07:25:16;23.87;;;10.57;;
68507;SDS011;55510;49.560;19.090;2023-11-22T07:28:19;24.87;;;11.33;;
68507;SDS011;55510;49.560;19.090;2023-11-22T07:31:20;24.50;;;10.25;;
68507;SDS011;55510;49.560;19.090;2023-11-22T07:34:21;28.03;;;11.73;;
68507;SDS011;55510;49.560;19.090;2023-11-22T07:37:25;35.83;;;15.20;;
68507;SDS011;55510;49.560;19.090;2023-11-22T07:40:26;24.95;;;12.20;;
68507;SDS011;55510;49.560;19.090;2023-11-22T07:43:26;28.10;;;13.10;;
68507;SDS011;55510;49.560;19.090;2023-11-22T07:46:27;29.60;;;13.60;;
68507;SDS011;55510;49.560;19.090;2023-11-22T07:49:28;30.47;;;14.23;;
68507;SDS011;55510;49.560;19.090;2023-11-22T07:52:29;29.88;;;14.60;;
68507;SDS011;55510;49.560;19.090;2023-11-22T07:55:30;37.35;;;15.02;;
68507;SDS011;55510;49.560;19.090;2023-11-22T07:58:31;31.67;;;12.43;;
68507;SDS011;55510;49.560;19.090;2023-11-22T08:01:32;34.85;;;14.50;;
68507;SDS011;55510;49.560;19.090;2023-11-22T08:04:33;38.83;;;15.23;;
68507;SDS011;55510;49.560;19.090;2023-11-22T08:07:34;41.15;;;15.98;;
68507;SDS011;55510;49.560;19.090;2023-11-22T08:10:39;34.53;;;14.13;;
68507;SDS011;55510;49.560;19.090;2023-11-22T08:13:40;31.50;;;13.07;;
68507;SDS011;55510;49.560;19.090;2023-11-22T08:16:43;33.80;;;13.70;;
68507;SDS011;55510;49.560;19.090;2023-11-22T08:19:45;30.13;;;12.33;;
68507;SDS011;55510;49.560;19.090;2023-11-22T08:22:48;32.73;;;15.10;;
68507;SDS011;55510;49.560;19.090;2023-11-22T08:25:51;29.92;;;13.70;;
68507;SDS011;55510;49.560;19.090;2023-11-22T08:28:53;27.40;;;12.07;;
68507;SDS011;55510;49.560;19.090;2023-11-22T08:31:54;32.25;;;13.45;;
68507;SDS011;55510;49.560;19.090;2023-11-22T08:34:55;33.77;;;13.03;;
68507;SDS011;55510;49.560;19.090;2023-11-22T08:37:56;25.23;;;9.97;;
68507;SDS011;55510;49.560;19.090;2023-11-22T08:41:04;23.13;;;9.57;;
68507;SDS011;55510;49.560;19.090;2023-11-22T08:44:06;18.35;;;7.75;;
68507;SDS011;55510;49.560;19.090;2023-11-22T08:47:07;22.10;;;9.10;;
68507;SDS011;55510;49.560;19.090;2023-11-22T08:50:08;22.15;;;9.48;;
68507;SDS011;55510;49.560;19.090;2023-11-22T08:53:12;22.25;;;10.00;;
68507;SDS011;55510;49.560;19.090;2023-11-22T08:56:13;19.83;;;8.87;;
68507;SDS011;55510;49.560;19.090;2023-11-22T08:59:14;21.00;;;9.38;;
68507;SDS011;55510;49.560;19.090;2023-11-22T09:02:16;22.88;;;9.52;;
68507;SDS011;55510;49.560;19.090;2023-11-22T09:05:18;21.05;;;8.60;;
68507;SDS011;55510;49.560;19.090;2023-11-22T09:08:19;17.48;;;7.95;;
68507;SDS011;55510;49.560;19.090;2023-11-22T09:11:21;17.90;;;7.47;;
68507;SDS011;55510;49.560;19.090;2023-11-22T09:14:22;18.75;;;7.63;;
68507;SDS011;55510;49.560;19.090;2023-11-22T09:17:24;23.17;;;10.30;;
68507;SDS011;55510;49.560;19.090;2023-11-22T09:20:24;26.83;;;11.23;;
68507;SDS011;55510;49.560;19.090;2023-11-22T09:23:25;18.77;;;7.57;;
68507;SDS011;55510;49.560;19.090;2023-11-22T09:26:27;21.48;;;9.60;;
68507;SDS011;55510;49.560;19.090;2023-11-22T09:29:28;28.50;;;12.05;;
68507;SDS011;55510;49.560;19.090;2023-11-22T09:32:29;19.83;;;8.63;;
68507;SDS011;55510;49.560;19.090;2023-11-22T09:35:29;28.67;;;11.80;;
68507;SDS011;55510;49.560;19.090;2023-11-22T09:38:34;23.50;;;10.17;;
68507;SDS011;55510;49.560;19.090;2023-11-22T09:41:35;33.97;;;13.82;;
68507;SDS011;55510;49.560;19.090;2023-11-22T09:44:36;44.50;;;18.27;;
68507;SDS011;55510;49.560;19.090;2023-11-22T09:47:37;33.78;;;13.20;;
68507;SDS011;55510;49.560;19.090;2023-11-22T09:50:54;27.30;;;11.17;;
68507;SDS011;55510;49.560;19.090;2023-11-22T09:54:18;18.13;;;7.60;;
68507;SDS011;55510;49.560;19.090;2023-11-22T09:57:20;17.27;;;7.75;;
68507;SDS011;55510;49.560;19.090;2023-11-22T10:00:26;16.52;;;7.45;;
68507;SDS011;55510;49.560;19.090;2023-11-22T10:03:29;21.30;;;8.83;;
68507;SDS011;55510;49.560;19.090;2023-11-22T10:06:31;23.43;;;8.47;;
68507;SDS011;55510;49.560;19.090;2023-11-22T10:09:34;21.67;;;8.95;;
68507;SDS011;55510;49.560;19.090;2023-11-22T10:12:37;41.67;;;13.90;;
68507;SDS011;55510;49.560;19.090;2023-11-22T10:15:40;43.55;;;14.90;;
68507;SDS011;55510;49.560;19.090;2023-11-22T10:18:42;30.33;;;14.20;;
68507;SDS011;55510;49.560;19.090;2023-11-22T10:21:43;22.20;;;10.10;;
68507;SDS011;55510;49.560;19.090;2023-11-22T10:24:44;23.48;;;9.82;;
68507;SDS011;55510;49.560;19.090;2023-11-22T10:27:47;26.73;;;9.77;;
68507;SDS011;55510;49.560;19.090;2023-11-22T10:30:48;21.63;;;8.63;;
68507;SDS011;55510;49.560;19.090;2023-11-22T10:33:51;25.13;;;11.23;;
68507;SDS011;55510;49.560;19.090;2023-11-22T10:36:55;28.98;;;13.75;;
68507;SDS011;55510;49.560;19.090;2023-11-22T10:39:56;25.92;;;11.88;;
68507;SDS011;55510;49.560;19.090;2023-11-22T10:42:57;22.58;;;10.48;;
68507;SDS011;55510;49.560;19.090;2023-11-22T10:45:58;20.67;;;8.30;;
68507;SDS011;55510;49.560;19.090;2023-11-22T10:48:59;20.83;;;8.63;;
68507;SDS011;55510;49.560;19.090;2023-11-22T10:52:01;17.63;;;7.70;;
68507;SDS011;55510;49.560;19.090;2023-11-22T10:55:06;17.58;;;7.15;;
68507;SDS011;55510;49.560;19.090;2023-11-22T10:58:06;18.08;;;8.15;;
68507;SDS011;55510;49.560;19.090;2023-11-22T11:01:09;21.23;;;8.00;;
68507;SDS011;55510;49.560;19.090;2023-11-22T11:04:11;24.33;;;10.53;;
68507;SDS011;55510;49.560;19.090;2023-11-22T11:07:39;21.60;;;9.23;;
68507;SDS011;55510;49.560;19.090;2023-11-22T11:10:43;21.88;;;10.30;;
68507;SDS011;55510;49.560;19.090;2023-11-22T11:13:47;23.63;;;9.67;;
68507;SDS011;55510;49.560;19.090;2023-11-22T11:16:49;20.10;;;8.00;;
68507;SDS011;55510;49.560;19.090;2023-11-22T11:19:54;21.52;;;9.18;;
68507;SDS011;55510;49.560;19.090;2023-11-22T11:22:55;22.75;;;10.20;;
68507;SDS011;55510;49.560;19.090;2023-11-22T11:25:57;25.87;;;10.83;;
68507;SDS011;55510;49.560;19.090;2023-11-22T11:28:59;20.55;;;7.88;;
68507;SDS011;55510;49.560;19.090;2023-11-22T11:32:02;21.45;;;8.65;;
68507;SDS011;55510;49.560;19.090;2023-11-22T11:35:03;14.23;;;5.82;;
68507;SDS011;55510;49.560;19.090;2023-11-22T11:38:08;17.63;;;7.13;;
68507;SDS011;55510;49.560;19.090;2023-11-22T11:41:10;21.77;;;9.30;;
68507;SDS011;55510;49.560;19.090;2023-11-22T11:44:12;21.33;;;9.57;;
68507;SDS011;55510;49.560;19.090;2023-11-22T11:47:13;29.73;;;12.05;;
68507;SDS011;55510;49.560;19.090;2023-11-22T11:50:14;29.40;;;12.00;;
68507;SDS011;55510;49.560;19.090;2023-11-22T11:53:18;29.07;;;11.83;;
68507;SDS011;55510;49.560;19.090;2023-11-22T11:56:19;24.50;;;10.20;;
68507;SDS011;55510;49.560;19.090;2023-11-22T11:59:21;25.95;;;11.50;;
68507;SDS011;55510;49.560;19.090;2023-11-22T12:02:22;32.33;;;13.87;;
68507;SDS011;55510;49.560;19.090;2023-11-22T12:05:22;37.73;;;15.00;;
68507;SDS011;55510;49.560;19.090;2023-11-22T12:08:25;53.47;;;19.85;;
68507;SDS011;55510;49.560;19.090;2023-11-22T12:11:29;49.07;;;18.70;;
68507;SDS011;55510;49.560;19.090;2023-11-22T12:14:30;46.43;;;18.57;;
68507;SDS011;55510;49.560;19.090;2023-11-22T12:17:31;37.92;;;15.13;;
68507;SDS011;55510;49.560;19.090;2023-11-22T12:20:33;32.63;;;12.40;;
68507;SDS011;55510;49.560;19.090;2023-11-22T12:23:34;34.40;;;14.10;;
68507;SDS011;55510;49.560;19.090;2023-11-22T12:26:35;28.17;;;10.65;;
68507;SDS011;55510;49.560;19.090;2023-11-22T12:29:37;37.05;;;14.50;;
68507;SDS011;55510;49.560;19.090;2023-11-22T12:32:38;39.60;;;14.53;;
68507;SDS011;55510;49.560;19.090;2023-11-22T12:35:40;35.78;;;14.82;;
68507;SDS011;55510;49.560;19.090;2023-11-22T12:38:44;31.92;;;14.70;;
68507;SDS011;55510;49.560;19.090;2023-11-22T12:41:51;44.50;;;15.43;;
68507;SDS011;55510;49.560;19.090;2023-11-22T12:44:53;44.80;;;15.63;;
68507;SDS011;55510;49.560;19.090;2023-11-22T12:47:54;34.77;;;12.93;;
68507;SDS011;55510;49.560;19.090;2023-11-22T12:50:57;43.40;;;16.17;;
68507;SDS011;55510;49.560;19.090;2023-11-22T12:53:57;43.40;;;16.50;;
68507;SDS011;55510;49.560;19.090;2023-11-22T12:56:58;36.63;;;14.70;;
68507;SDS011;55510;49.560;19.090;2023-11-22T12:59:59;36.93;;;14.53;;
68507;SDS011;55510;49.560;19.090;2023-11-22T13:03:00;35.97;;;14.32;;
68507;SDS011;55510;49.560;19.090;2023-11-22T13:06:01;52.75;;;18.02;;
68507;SDS011;55510;49.560;19.090;2023-11-22T13:09:02;57.93;;;18.10;;
68507;SDS011;55510;49.560;19.090;2023-11-22T13:12:03;52.22;;;16.25;;
68507;SDS011;55510;49.560;19.090;2023-11-22T13:15:05;36.40;;;13.73;;
68507;SDS011;55510;49.560;19.090;2023-11-22T13:18:06;38.30;;;15.75;;
68507;SDS011;55510;49.560;19.090;2023-11-22T13:21:08;44.70;;;16.07;;
68507;SDS011;55510;49.560;19.090;2023-11-22T13:24:09;43.10;;;16.17;;
68507;SDS011;55510;49.560;19.090;2023-11-22T13:27:11;42.53;;;15.43;;
68507;SDS011;55510;49.560;19.090;2023-11-22T13:30:12;28.07;;;12.33;;
68507;SDS011;55510;49.560;19.090;2023-11-22T13:33:13;24.30;;;11.00;;
68507;SDS011;55510;49.560;19.090;2023-11-22T13:36:14;28.93;;;12.53;;
68507;SDS011;55510;49.560;19.090;2023-11-22T13:39:15;23.73;;;10.73;;
68507;SDS011;55510;49.560;19.090;2023-11-22T13:42:16;28.33;;;10.50;;
68507;SDS011;55510;49.560;19.090;2023-11-22T13:45:17;28.03;;;10.60;;
68507;SDS011;55510;49.560;19.090;2023-11-22T13:48:18;28.48;;;11.80;;
68507;SDS011;55510;49.560;19.090;2023-11-22T13:51:20;25.95;;;11.13;;
68507;SDS011;55510;49.560;19.090;2023-11-22T13:54:31;27.60;;;11.30;;
68507;SDS011;55510;49.560;19.090;2023-11-22T13:57:35;33.63;;;13.03;;
68507;SDS011;55510;49.560;19.090;2023-11-22T14:00:36;21.40;;;9.23;;
68507;SDS011;55510;49.560;19.090;2023-11-22T14:03:39;24.17;;;10.65;;
68507;SDS011;55510;49.560;19.090;2023-11-22T14:06:39;18.77;;;9.20;;
68507;SDS011;55510;49.560;19.090;2023-11-22T14:09:40;30.42;;;11.48;;
68507;SDS011;55510;49.560;19.090;2023-11-22T14:12:41;30.50;;;11.73;;
68507;SDS011;55510;49.560;19.090;2023-11-22T14:15:44;27.48;;;10.27;;
68507;SDS011;55510;49.560;19.090;2023-11-22T14:18:44;28.05;;;12.00;;
68507;SDS011;55510;49.560;19.090;2023-11-22T14:21:45;27.23;;;10.53;;
68507;SDS011;55510;49.560;19.090;2023-11-22T14:24:46;24.83;;;10.33;;
68507;SDS011;55510;49.560;19.090;2023-11-22T14:27:47;33.70;;;13.18;;
68507;SDS011;55510;49.560;19.090;2023-11-22T14:30:54;44.22;;;15.80;;
68507;SDS011;55510;49.560;19.090;2023-11-22T14:33:55;38.55;;;14.90;;
68507;SDS011;55510;49.560;19.090;2023-11-22T14:36:59;28.07;;;11.30;;
68507;SDS011;55510;49.560;19.090;2023-11-22T14:40:00;29.30;;;11.53;;
68507;SDS011;55510;49.560;19.090;2023-11-22T14:43:01;35.20;;;13.32;;
68507;SDS011;55510;49.560;19.090;2023-11-22T14:46:03;35.80;;;14.40;;
68507;SDS011;55510;49.560;19.090;2023-11-22T14:49:06;43.03;;;16.90;;
68507;SDS011;55510;49.560;19.090;2023-11-22T14:52:08;79.20;;;31.40;;
68507;SDS011;55510;49.560;19.090;2023-11-22T14:55:10;29.67;;;10.97;;
68507;SDS011;55510;49.560;19.090;2023-11-22T14:58:13;177.55;;;58.10;;
68507;SDS011;55510;49.560;19.090;2023-11-22T15:01:14;235.80;;;91.32;;
68507;SDS011;55510;49.560;19.090;2023-11-22T15:04:16;37.90;;;16.77;;
68507;SDS011;55510;49.560;19.090;2023-11-22T15:07:16;60.53;;;23.92;;
68507;SDS011;55510;49.560;19.090;2023-11-22T15:10:17;39.07;;;16.67;;
68507;SDS011;55510;49.560;19.090;2023-11-22T15:13:20;49.97;;;20.35;;
68507;SDS011;55510;49.560;19.090;2023-11-22T15:16:21;36.10;;;14.85;;
68507;SDS011;55510;49.560;19.090;2023-11-22T15:19:22;35.00;;;14.77;;
68507;SDS011;55510;49.560;19.090;2023-11-22T15:22:27;35.50;;;14.90;;
68507;SDS011;55510;49.560;19.090;2023-11-22T15:25:28;43.07;;;18.73;;
68507;SDS011;55510;49.560;19.090;2023-11-22T15:28:28;39.47;;;17.70;;
68507;SDS011;55510;49.560;19.090;2023-11-22T15:31:29;54.83;;;22.53;;
68507;SDS011;55510;49.560;19.090;2023-11-22T15:34:31;89.63;;;33.93;;
68507;SDS011;55510;49.560;19.090;2023-11-22T15:37:32;96.57;;;36.47;;
68507;SDS011;55510;49.560;19.090;2023-11-22T15:40:32;56.95;;;21.27;;
68507;SDS011;55510;49.560;19.090;2023-11-22T15:43:34;48.43;;;19.00;;
68507;SDS011;55510;49.560;19.090;2023-11-22T15:46:35;63.63;;;27.13;;
68507;SDS011;55510;49.560;19.090;2023-11-22T15:49:36;58.47;;;21.70;;
68507;SDS011;55510;49.560;19.090;2023-11-22T15:52:36;56.45;;;22.70;;
68507;SDS011;55510;49.560;19.090;2023-11-22T15:55:39;44.63;;;16.42;;
68507;SDS011;55510;49.560;19.090;2023-11-22T15:58:41;46.67;;;16.17;;
68507;SDS011;55510;49.560;19.090;2023-11-22T16:01:43;45.55;;;17.65;;
68507;SDS011;55510;49.560;19.090;2023-11-22T16:04:44;51.35;;;19.58;;
68507;SDS011;55510;49.560;19.090;2023-11-22T16:07:45;58.95;;;19.70;;
68507;SDS011;55510;49.560;19.090;2023-11-22T16:10:46;57.13;;;19.63;;
68507;SDS011;55510;49.560;19.090;2023-11-22T16:13:46;44.00;;;14.93;;
68507;SDS011;55510;49.560;19.090;2023-11-22T16:16:48;25.10;;;9.20;;
68507;SDS011;55510;49.560;19.090;2023-11-22T16:19:50;33.17;;;12.77;;
68507;SDS011;55510;49.560;19.090;2023-11-22T16:22:51;36.50;;;14.23;;
68507;SDS011;55510;49.560;19.090;2023-11-22T16:25:52;34.27;;;15.90;;
68507;SDS011;55510;49.560;19.090;2023-11-22T16:28:53;42.53;;;18.80;;
68507;SDS011;55510;49.560;19.090;2023-11-22T16:31:53;66.35;;;24.98;;
68507;SDS011;55510;49.560;19.090;2023-11-22T16:34:54;65.90;;;23.80;;
68507;SDS011;55510;49.560;19.090;2023-11-22T16:37:55;52.15;;;20.30;;
68507;SDS011;55510;49.560;19.090;2023-11-22T16:40:56;62.30;;;20.50;;
68507;SDS011;55510;49.560;19.090;2023-11-22T16:43:58;47.57;;;16.93;;
68507;SDS011;55510;49.560;19.090;2023-11-22T16:47:00;38.35;;;14.23;;
68507;SDS011;55510;49.560;19.090;2023-11-22T16:50:01;30.73;;;12.00;;
68507;SDS011;55510;49.560;19.090;2023-11-22T16:53:05;32.45;;;12.65;;
68507;SDS011;55510;49.560;19.090;2023-11-22T16:56:06;26.30;;;9.87;;
68507;SDS011;55510;49.560;19.090;2023-11-22T16:59:07;42.90;;;15.95;;
68507;SDS011;55510;49.560;19.090;2023-11-22T17:02:09;74.63;;;26.30;;
68507;SDS011;55510;49.560;19.090;2023-11-22T17:05:12;75.32;;;27.67;;
68507;SDS011;55510;49.560;19.090;2023-11-22T17:08:13;69.75;;;23.70;;
68507;SDS011;55510;49.560;19.090;2023-11-22T17:11:15;78.17;;;25.80;;
68507;SDS011;55510;49.560;19.090;2023-11-22T17:14:16;57.42;;;21.35;;
68507;SDS011;55510;49.560;19.090;2023-11-22T17:17:18;48.85;;;17.15;;
68507;SDS011;55510;49.560;19.090;2023-11-22T17:20:20;48.67;;;17.80;;
68507;SDS011;55510;49.560;19.090;2023-11-22T17:23:21;63.13;;;23.25;;
68507;SDS011;55510;49.560;19.090;2023-11-22T17:26:22;51.83;;;19.23;;
68507;SDS011;55510;49.560;19.090;2023-11-22T17:29:23;43.33;;;15.13;;
68507;SDS011;55510;49.560;19.090;2023-11-22T17:32:25;36.13;;;13.18;;
68507;SDS011;55510;49.560;19.090;2023-11-22T17:35:26;41.35;;;15.60;;